createdAt,value
2017-09-30T00:00:32.539Z,21.60
2017-09-30T00:01:32.501Z,14.60
2017-09-30T00:02:32.508Z,18.80
2017-09-30T00:03:32.444Z,18.20
2017-09-30T00:04:32.414Z,19.10
2017-09-30T00:05:32.384Z,16.90
2017-09-30T00:06:32.351Z,18.40
2017-09-30T00:07:32.327Z,17.20
2017-09-30T00:08:32.291Z,19.80
2017-09-30T00:09:32.264Z,19.80
2017-09-30T00:10:32.237Z,16.80
2017-09-30T00:11:32.205Z,14.80
2017-09-30T00:12:32.177Z,22.50
2017-09-30T00:13:32.145Z,16.10
2017-09-30T00:14:32.115Z,16.70
2017-09-30T00:15:32.085Z,22.10
2017-09-30T00:16:32.054Z,26.10
2017-09-30T00:17:32.033Z,17.90
2017-09-30T00:18:31.997Z,22.00
2017-09-30T00:19:31.971Z,17.40
2017-09-30T00:20:31.936Z,17.90
2017-09-30T00:21:31.908Z,16.60
2017-09-30T00:22:31.879Z,15.70
2017-09-30T00:23:31.847Z,19.90
2017-09-30T00:24:31.819Z,22.00
2017-09-30T00:25:31.790Z,22.10
2017-09-30T00:26:31.759Z,19.90
2017-09-30T00:27:31.731Z,20.50
2017-09-30T00:28:31.699Z,22.40
2017-09-30T00:29:31.672Z,21.40
2017-09-30T00:30:31.641Z,18.20
2017-09-30T00:31:31.611Z,24.70
2017-09-30T00:32:31.582Z,20.30
2017-09-30T00:33:31.551Z,20.40
2017-09-30T00:34:31.524Z,21.00
2017-09-30T00:35:31.493Z,20.90
2017-09-30T00:36:31.463Z,21.20
2017-09-30T00:37:31.433Z,24.10
2017-09-30T00:38:31.403Z,22.30
2017-09-30T00:39:31.374Z,21.20
2017-09-30T00:40:31.345Z,25.20
2017-09-30T00:41:31.312Z,23.90
2017-09-30T00:42:31.285Z,22.30
2017-09-30T00:43:31.255Z,24.80
2017-09-30T00:44:31.225Z,22.40
2017-09-30T00:45:31.196Z,28.20
2017-09-30T00:46:31.168Z,21.40
2017-09-30T00:47:31.136Z,28.10
2017-09-30T00:48:31.107Z,19.90
2017-09-30T00:49:31.076Z,31.60
2017-09-30T00:50:31.051Z,25.20
2017-09-30T00:51:31.018Z,27.80
2017-09-30T00:52:30.988Z,28.00
2017-09-30T00:53:30.959Z,27.50
2017-09-30T00:54:30.928Z,22.00
2017-09-30T00:55:30.899Z,25.60
2017-09-30T00:56:30.875Z,25.10
2017-09-30T00:57:30.840Z,24.70
2017-09-30T00:58:30.811Z,24.40
2017-09-30T00:59:30.780Z,23.50
2017-09-30T01:00:30.750Z,27.90
2017-09-30T01:01:30.719Z,22.60
2017-09-30T01:02:30.691Z,27.70
2017-09-30T01:03:30.657Z,31.40
2017-09-30T01:04:30.630Z,31.10
2017-09-30T01:05:30.600Z,29.30
2017-09-30T01:06:30.572Z,25.90
2017-09-30T01:07:30.542Z,31.20
2017-09-30T01:08:30.513Z,35.40
2017-09-30T01:09:30.483Z,29.20
2017-09-30T01:10:30.453Z,25.90
2017-09-30T01:11:30.424Z,23.50
2017-09-30T01:12:30.393Z,37.30
2017-09-30T01:13:30.364Z,32.40
2017-09-30T01:14:30.335Z,29.30
2017-09-30T01:15:30.304Z,26.60
2017-09-30T01:16:30.274Z,39.30
2017-09-30T01:17:30.245Z,35.40
2017-09-30T01:18:30.216Z,41.40
2017-09-30T01:19:30.184Z,37.30
2017-09-30T01:20:30.156Z,32.10
2017-09-30T01:21:30.126Z,11.80
2017-09-30T01:22:30.098Z,18.70
2017-09-30T01:23:30.066Z,11.30
2017-09-30T01:24:30.036Z,13.50
2017-09-30T01:25:30.009Z,13.90
2017-09-30T01:26:29.976Z,12.90
2017-09-30T01:27:29.948Z,14.20
2017-09-30T01:28:29.917Z,14.40
2017-09-30T01:29:29.888Z,14.70
2017-09-30T01:30:29.858Z,13.20
2017-09-30T01:31:29.827Z,26.00
2017-09-30T01:32:29.798Z,29.90
2017-09-30T01:33:29.772Z,24.20
2017-09-30T01:34:29.741Z,26.40
2017-09-30T01:35:29.709Z,23.00
2017-09-30T01:36:29.679Z,26.30
2017-09-30T01:37:29.651Z,21.80
2017-09-30T01:38:29.620Z,22.10
2017-09-30T01:39:29.591Z,22.60
2017-09-30T01:40:29.561Z,25.40
2017-09-30T01:41:29.531Z,20.20
2017-09-30T01:42:29.501Z,26.70
2017-09-30T01:43:29.479Z,25.80
2017-09-30T01:44:29.442Z,24.00
2017-09-30T01:45:29.412Z,18.30
2017-09-30T01:46:29.382Z,20.20
2017-09-30T01:47:29.351Z,26.30
2017-09-30T01:48:29.321Z,25.60
2017-09-30T01:49:29.292Z,29.20
2017-09-30T01:50:29.263Z,21.20
2017-09-30T01:51:29.232Z,22.50
2017-09-30T01:52:29.202Z,24.20
2017-09-30T01:53:29.172Z,22.40
2017-09-30T01:54:29.143Z,24.70
2017-09-30T01:55:29.111Z,17.80
2017-09-30T01:56:29.083Z,23.30
2017-09-30T01:57:29.053Z,24.70
2017-09-30T01:58:29.022Z,37.30
2017-09-30T01:59:28.993Z,20.30
2017-09-30T02:00:28.962Z,24.20
2017-09-30T02:01:28.932Z,14.30
2017-09-30T02:02:28.905Z,13.00
2017-09-30T02:03:28.873Z,18.10
2017-09-30T02:04:28.843Z,18.00
2017-09-30T02:05:28.814Z,25.70
2017-09-30T02:06:28.783Z,11.90
2017-09-30T02:07:28.753Z,17.10
2017-09-30T02:08:28.724Z,13.30
2017-09-30T02:09:28.693Z,13.50
2017-09-30T02:10:28.665Z,21.90
2017-09-30T02:11:28.633Z,17.90
2017-09-30T02:12:28.601Z,16.00
2017-09-30T02:13:28.576Z,21.20
2017-09-30T02:14:28.543Z,21.00
2017-09-30T02:15:28.513Z,21.20
2017-09-30T02:16:28.485Z,18.70
2017-09-30T02:17:28.452Z,18.70
2017-09-30T02:18:28.424Z,22.60
2017-09-30T02:19:28.395Z,19.20
2017-09-30T02:20:28.362Z,31.20
2017-09-30T02:21:28.333Z,20.70
2017-09-30T02:22:28.302Z,21.00
2017-09-30T02:23:28.271Z,24.80
2017-09-30T02:24:28.241Z,25.80
2017-09-30T02:25:28.210Z,15.30
2017-09-30T02:26:28.180Z,21.60
2017-09-30T02:27:28.149Z,22.00
2017-09-30T02:28:28.118Z,20.90
2017-09-30T02:29:28.091Z,18.80
2017-09-30T02:30:28.059Z,19.70
2017-09-30T02:31:28.030Z,18.40
2017-09-30T02:32:27.998Z,26.00
2017-09-30T02:33:27.967Z,22.40
2017-09-30T02:34:27.936Z,21.20
2017-09-30T02:35:27.908Z,20.70
2017-09-30T02:36:27.878Z,19.80
2017-09-30T02:37:27.846Z,18.60
2017-09-30T02:38:27.820Z,15.50
2017-09-30T02:39:27.783Z,17.80
2017-09-30T02:40:27.755Z,20.40
2017-09-30T02:41:27.725Z,13.30
2017-09-30T02:42:27.691Z,19.20
2017-09-30T02:43:27.662Z,14.50
2017-09-30T02:44:27.631Z,20.20
2017-09-30T02:45:27.602Z,14.90
2017-09-30T02:46:27.571Z,18.90
2017-09-30T02:47:27.541Z,11.00
2017-09-30T02:48:27.517Z,14.20
2017-09-30T02:49:27.481Z,20.60
2017-09-30T02:50:27.450Z,13.10
2017-09-30T02:51:27.419Z,18.40
2017-09-30T02:52:27.388Z,17.80
2017-09-30T02:53:27.358Z,14.30
2017-09-30T02:54:27.331Z,16.30
2017-09-30T02:55:27.300Z,14.90
2017-09-30T02:56:27.265Z,22.10
2017-09-30T02:57:27.237Z,17.40
2017-09-30T02:58:27.208Z,21.80
2017-09-30T02:59:27.175Z,19.60
2017-09-30T03:00:27.146Z,19.40
2017-09-30T03:01:27.114Z,17.10
2017-09-30T03:02:27.084Z,19.30
2017-09-30T03:03:27.053Z,17.00
2017-09-30T03:04:27.024Z,19.20
2017-09-30T03:05:26.993Z,15.00
2017-09-30T03:06:26.963Z,19.80
2017-09-30T03:07:26.931Z,22.30
2017-09-30T03:08:26.904Z,16.80
2017-09-30T03:09:26.871Z,14.40
2017-09-30T03:10:26.842Z,18.60
2017-09-30T03:11:26.809Z,23.40
2017-09-30T03:12:26.777Z,14.70
2017-09-30T03:13:26.747Z,17.70
2017-09-30T03:14:26.717Z,17.80
2017-09-30T03:15:26.687Z,15.30
2017-09-30T03:16:26.658Z,19.10
2017-09-30T03:17:26.625Z,26.10
2017-09-30T03:18:26.592Z,21.80
2017-09-30T03:19:26.568Z,20.60
2017-09-30T03:20:26.547Z,25.60
2017-09-30T03:21:26.503Z,19.60
2017-09-30T03:22:26.473Z,22.40
2017-09-30T03:23:26.441Z,27.10
2017-09-30T03:24:26.410Z,19.50
2017-09-30T03:25:26.382Z,20.70
2017-09-30T03:26:26.351Z,20.50
2017-09-30T03:27:26.318Z,20.80
2017-09-30T03:28:26.284Z,20.10
2017-09-30T03:29:26.257Z,20.40
2017-09-30T03:30:26.235Z,22.20
2017-09-30T03:31:26.199Z,28.50
2017-09-30T03:32:26.164Z,24.10
2017-09-30T03:33:26.134Z,24.30
2017-09-30T03:34:26.101Z,20.20
2017-09-30T03:35:26.071Z,22.30
2017-09-30T03:36:26.039Z,29.80
2017-09-30T03:37:26.011Z,31.00
2017-09-30T03:38:25.980Z,22.40
2017-09-30T03:39:25.953Z,22.70
2017-09-30T03:40:25.917Z,25.20
2017-09-30T03:41:25.886Z,22.00
2017-09-30T03:42:25.855Z,23.80
2017-09-30T03:43:25.824Z,21.70
2017-09-30T03:44:25.793Z,22.70
2017-09-30T03:45:25.773Z,20.80
2017-09-30T03:46:25.730Z,22.80
2017-09-30T03:47:25.700Z,24.50
2017-09-30T03:48:25.668Z,26.40
2017-09-30T03:49:25.637Z,26.20
2017-09-30T03:50:25.606Z,26.90
2017-09-30T03:51:25.575Z,27.00
2017-09-30T03:52:25.545Z,22.80
2017-09-30T03:53:25.514Z,29.80
2017-09-30T03:54:25.484Z,24.60
2017-09-30T03:55:25.450Z,22.30
2017-09-30T03:56:25.420Z,26.20
2017-09-30T03:57:25.388Z,24.50
2017-09-30T03:58:25.358Z,30.60
2017-09-30T03:59:25.325Z,25.90
2017-09-30T04:00:25.289Z,24.40
2017-09-30T04:01:25.266Z,29.10
2017-09-30T04:02:25.234Z,24.00
2017-09-30T04:03:25.203Z,30.00
2017-09-30T04:04:25.172Z,27.60
2017-09-30T04:05:25.142Z,24.10
2017-09-30T04:06:25.110Z,26.70
2017-09-30T04:07:25.078Z,24.00
2017-09-30T04:08:25.047Z,25.10
2017-09-30T04:09:25.017Z,23.20
2017-09-30T04:10:24.987Z,23.70
2017-09-30T04:11:24.953Z,24.70
2017-09-30T04:12:24.922Z,25.70
2017-09-30T04:13:24.891Z,25.10
2017-09-30T04:14:24.861Z,27.00
2017-09-30T04:15:24.828Z,22.50
2017-09-30T04:16:24.798Z,23.60
2017-09-30T04:17:24.787Z,26.10
2017-09-30T04:18:24.736Z,20.00
2017-09-30T04:19:24.703Z,23.00
2017-09-30T04:20:24.674Z,23.80
2017-09-30T04:21:24.643Z,18.80
2017-09-30T04:22:24.612Z,19.70
2017-09-30T04:23:24.579Z,25.00
2017-09-30T04:24:24.549Z,21.60
2017-09-30T04:25:24.519Z,20.80
2017-09-30T04:26:24.489Z,25.60
2017-09-30T04:27:24.456Z,20.70
2017-09-30T04:28:24.427Z,24.20
2017-09-30T04:29:24.394Z,26.00
2017-09-30T04:30:24.367Z,26.90
2017-09-30T04:31:24.333Z,23.20
2017-09-30T04:32:24.308Z,23.00
2017-09-30T04:33:24.269Z,25.40
2017-09-30T04:34:24.240Z,18.90
2017-09-30T04:35:24.213Z,19.00
2017-09-30T04:36:24.178Z,21.30
2017-09-30T04:37:24.148Z,21.90
2017-09-30T04:38:24.116Z,19.30
2017-09-30T04:39:24.085Z,18.10
2017-09-30T04:40:24.053Z,16.60
2017-09-30T04:41:24.024Z,23.20
2017-09-30T04:42:23.994Z,24.20
2017-09-30T04:43:23.962Z,18.70
2017-09-30T04:44:23.932Z,21.70
2017-09-30T04:45:23.904Z,18.50
2017-09-30T04:46:23.869Z,17.60
2017-09-30T04:47:23.837Z,20.40
2017-09-30T04:48:23.806Z,23.90
2017-09-30T04:49:23.775Z,19.40
2017-09-30T04:50:23.746Z,19.40
2017-09-30T04:51:23.713Z,13.90
2017-09-30T04:52:23.682Z,16.10
2017-09-30T04:53:23.657Z,14.60
2017-09-30T04:54:23.621Z,18.40
2017-09-30T04:55:23.590Z,17.00
2017-09-30T04:56:23.559Z,20.00
2017-09-30T04:57:23.533Z,14.40
2017-09-30T04:58:23.495Z,14.10
2017-09-30T04:59:23.466Z,14.30
2017-09-30T05:00:23.435Z,14.90
2017-09-30T05:01:23.404Z,12.50
2017-09-30T05:02:23.372Z,15.20
2017-09-30T05:03:23.340Z,13.40
2017-09-30T05:04:23.311Z,14.10
2017-09-30T05:05:23.279Z,12.10
2017-09-30T05:06:23.247Z,13.60
2017-09-30T05:07:23.224Z,13.70
2017-09-30T05:08:23.186Z,14.80
2017-09-30T05:09:23.154Z,12.30
2017-09-30T05:10:23.125Z,13.80
2017-09-30T05:11:23.093Z,13.70
2017-09-30T05:12:23.063Z,14.10
2017-09-30T05:13:23.029Z,15.30
2017-09-30T05:14:22.999Z,17.10
2017-09-30T05:15:22.967Z,17.70
2017-09-30T05:16:22.937Z,18.50
2017-09-30T05:17:22.906Z,13.90
2017-09-30T05:18:22.876Z,17.60
2017-09-30T05:19:22.845Z,17.20
2017-09-30T05:20:22.818Z,16.50
2017-09-30T05:21:22.784Z,18.80
2017-09-30T05:22:22.752Z,18.80
2017-09-30T05:23:22.721Z,16.90
2017-09-30T05:24:22.691Z,19.70
2017-09-30T05:25:22.661Z,15.90
2017-09-30T05:26:22.628Z,14.80
2017-09-30T05:27:22.598Z,17.70
2017-09-30T05:28:22.566Z,21.20
2017-09-30T05:29:22.537Z,17.30
2017-09-30T05:30:22.511Z,21.30
2017-09-30T05:31:22.474Z,16.30
2017-09-30T05:32:22.445Z,16.50
2017-09-30T05:33:22.415Z,16.60
2017-09-30T05:34:22.382Z,20.40
2017-09-30T05:35:22.351Z,20.40
2017-09-30T05:36:22.324Z,19.40
2017-09-30T05:37:22.291Z,17.90
2017-09-30T05:38:22.266Z,17.60
2017-09-30T05:39:22.229Z,19.50
2017-09-30T05:40:22.196Z,19.50
2017-09-30T05:41:22.166Z,18.30
2017-09-30T05:42:22.136Z,25.00
2017-09-30T05:43:22.105Z,20.00
2017-09-30T05:44:22.074Z,23.90
2017-09-30T05:45:22.043Z,21.40
2017-09-30T05:46:22.013Z,19.60
2017-09-30T05:47:21.981Z,25.90
2017-09-30T05:48:21.950Z,23.70
2017-09-30T05:49:21.920Z,23.70
2017-09-30T05:50:21.891Z,27.50
2017-09-30T05:51:21.860Z,27.40
2017-09-30T05:52:21.841Z,29.60
2017-09-30T05:53:21.799Z,29.80
2017-09-30T05:54:21.767Z,28.60
2017-09-30T05:55:21.735Z,38.30
2017-09-30T05:56:21.705Z,35.60
2017-09-30T05:57:21.674Z,29.00
2017-09-30T05:58:21.643Z,32.60
2017-09-30T05:59:21.612Z,33.20
2017-09-30T06:00:21.582Z,28.70
2017-09-30T06:01:21.550Z,29.30
2017-09-30T06:02:21.527Z,34.10
2017-09-30T06:03:21.486Z,35.60
2017-09-30T06:04:21.458Z,45.00
2017-09-30T06:05:21.426Z,44.00
2017-09-30T06:06:21.394Z,44.40
2017-09-30T06:07:21.362Z,42.50
2017-09-30T06:08:21.331Z,38.60
2017-09-30T06:09:21.304Z,32.90
2017-09-30T06:10:21.271Z,36.80
2017-09-30T06:11:21.237Z,32.60
2017-09-30T06:12:21.210Z,31.40
2017-09-30T06:13:21.177Z,32.40
2017-09-30T06:14:21.145Z,28.40
2017-09-30T06:15:21.112Z,21.50
2017-09-30T06:16:21.081Z,19.80
2017-09-30T06:17:21.052Z,21.50
2017-09-30T06:18:21.019Z,20.90
2017-09-30T06:19:20.987Z,20.10
2017-09-30T06:20:20.957Z,17.70
2017-09-30T06:21:20.925Z,15.80
2017-09-30T06:22:20.896Z,17.60
2017-09-30T06:23:20.865Z,17.80
2017-09-30T06:24:20.833Z,13.00
2017-09-30T06:25:20.801Z,14.70
2017-09-30T06:26:20.772Z,14.90
2017-09-30T06:27:20.736Z,15.50
2017-09-30T06:28:20.707Z,14.40
2017-09-30T06:29:20.678Z,12.30
2017-09-30T06:30:20.646Z,12.00
2017-09-30T06:31:20.613Z,20.00
2017-09-30T06:32:20.584Z,16.50
2017-09-30T06:33:20.550Z,13.60
2017-09-30T06:34:20.524Z,12.60
2017-09-30T06:35:20.489Z,15.00
2017-09-30T06:36:20.456Z,9.80
2017-09-30T06:37:20.426Z,16.60
2017-09-30T06:38:20.395Z,13.80
2017-09-30T06:39:20.364Z,11.50
2017-09-30T06:40:20.331Z,13.80
2017-09-30T06:41:20.301Z,13.20
2017-09-30T06:42:20.275Z,13.10
2017-09-30T06:43:20.240Z,13.30
2017-09-30T06:44:20.209Z,16.30
2017-09-30T06:45:20.179Z,18.60
2017-09-30T06:46:20.147Z,15.30
2017-09-30T06:47:20.116Z,17.30
2017-09-30T06:48:20.084Z,13.90
2017-09-30T06:49:20.054Z,15.70
2017-09-30T06:50:20.023Z,14.60
2017-09-30T06:51:19.993Z,15.70
2017-09-30T06:52:19.961Z,11.60
2017-09-30T06:53:19.932Z,14.10
2017-09-30T06:54:19.900Z,15.20
2017-09-30T06:55:19.869Z,18.40
2017-09-30T06:56:19.838Z,13.90
2017-09-30T06:57:19.806Z,16.20
2017-09-30T06:58:19.777Z,19.60
2017-09-30T06:59:19.748Z,15.20
2017-09-30T07:00:19.715Z,14.70
2017-09-30T07:01:19.686Z,16.90
2017-09-30T07:02:19.655Z,14.30
2017-09-30T07:03:19.624Z,14.70
2017-09-30T07:04:19.593Z,14.70
2017-09-30T07:05:19.563Z,15.20
2017-09-30T07:06:19.533Z,16.80
2017-09-30T07:07:19.502Z,16.40
2017-09-30T07:08:19.474Z,17.00
2017-09-30T07:09:19.440Z,13.80
2017-09-30T07:10:19.409Z,13.50
2017-09-30T07:11:19.377Z,15.70
2017-09-30T07:12:19.351Z,15.90
2017-09-30T07:13:19.317Z,16.70
2017-09-30T07:14:19.288Z,12.30
2017-09-30T07:15:19.256Z,15.40
2017-09-30T07:16:19.227Z,14.90
2017-09-30T07:17:19.195Z,22.00
2017-09-30T07:18:19.168Z,17.50
2017-09-30T07:19:19.135Z,13.90
2017-09-30T07:20:19.106Z,16.50
2017-09-30T07:21:19.075Z,17.00
2017-09-30T07:22:19.045Z,19.80
2017-09-30T07:23:19.011Z,17.60
2017-09-30T07:24:18.986Z,25.10
2017-09-30T07:25:18.952Z,20.20
2017-09-30T07:26:18.921Z,20.50
2017-09-30T07:27:18.891Z,22.80
2017-09-30T07:28:18.860Z,21.60
2017-09-30T07:29:18.833Z,24.00
2017-09-30T07:30:18.800Z,25.60
2017-09-30T07:31:18.770Z,22.00
2017-09-30T07:32:18.740Z,24.20
2017-09-30T07:33:18.708Z,21.30
2017-09-30T07:34:18.676Z,18.70
2017-09-30T07:35:18.646Z,26.00
2017-09-30T07:36:18.615Z,16.50
2017-09-30T07:37:18.586Z,17.20
2017-09-30T07:38:18.552Z,18.30
2017-09-30T07:39:18.524Z,19.40
2017-09-30T07:40:18.493Z,18.10
2017-09-30T07:41:18.463Z,18.00
2017-09-30T07:42:18.431Z,21.80
2017-09-30T07:43:18.398Z,20.00
2017-09-30T07:44:18.369Z,22.90
2017-09-30T07:45:18.338Z,20.10
2017-09-30T07:46:18.307Z,18.80
2017-09-30T07:47:18.276Z,20.10
2017-09-30T07:48:18.243Z,22.80
2017-09-30T07:49:18.214Z,19.10
2017-09-30T07:50:18.185Z,23.80
2017-09-30T07:51:18.151Z,24.60
2017-09-30T07:52:18.125Z,21.60
2017-09-30T07:53:18.092Z,20.40
2017-09-30T07:54:18.060Z,24.40
2017-09-30T07:55:18.029Z,20.10
2017-09-30T07:56:17.999Z,18.10
2017-09-30T07:57:17.970Z,23.30
2017-09-30T07:58:17.937Z,23.30
2017-09-30T07:59:17.907Z,23.90
2017-09-30T08:00:17.876Z,20.20
2017-09-30T08:01:17.843Z,24.50
2017-09-30T08:02:17.814Z,21.20
2017-09-30T08:03:17.782Z,22.40
2017-09-30T08:04:17.753Z,23.30
2017-09-30T08:05:17.722Z,26.50
2017-09-30T08:06:17.691Z,24.40
2017-09-30T08:07:17.659Z,23.10
2017-09-30T08:08:17.630Z,21.60
2017-09-30T08:09:17.607Z,19.50
2017-09-30T08:10:17.573Z,22.60
2017-09-30T08:11:17.539Z,24.10
2017-09-30T08:12:17.509Z,21.10
2017-09-30T08:13:17.478Z,18.90
2017-09-30T08:14:17.448Z,19.80
2017-09-30T08:15:17.416Z,20.20
2017-09-30T08:16:17.386Z,16.10
2017-09-30T08:17:17.358Z,18.80
2017-09-30T08:18:17.327Z,18.40
2017-09-30T08:19:17.294Z,18.60
2017-09-30T08:20:17.265Z,22.10
2017-09-30T08:21:17.237Z,20.60
2017-09-30T08:22:17.202Z,20.80
2017-09-30T08:23:17.170Z,19.00
2017-09-30T08:24:17.148Z,15.20
2017-09-30T08:25:17.113Z,20.90
2017-09-30T08:26:17.081Z,19.50
2017-09-30T08:27:17.051Z,23.50
2017-09-30T08:28:17.020Z,21.10
2017-09-30T08:29:16.990Z,22.20
2017-09-30T08:30:16.960Z,17.40
2017-09-30T08:31:16.930Z,16.60
2017-09-30T08:32:16.896Z,22.10
2017-09-30T08:33:16.868Z,15.80
2017-09-30T08:34:16.838Z,19.70
2017-09-30T08:35:16.810Z,18.40
2017-09-30T08:36:16.777Z,18.60
2017-09-30T08:37:16.748Z,21.20
2017-09-30T08:38:16.717Z,20.10
2017-09-30T08:39:16.687Z,17.30
2017-09-30T08:40:16.654Z,18.80
2017-09-30T08:41:16.626Z,19.50
2017-09-30T08:42:16.592Z,21.90
2017-09-30T08:43:16.563Z,20.30
2017-09-30T08:44:16.533Z,18.60
2017-09-30T08:45:16.501Z,19.40
2017-09-30T08:46:16.471Z,18.40
2017-09-30T08:47:16.447Z,20.20
2017-09-30T08:48:16.409Z,21.30
2017-09-30T08:49:16.380Z,16.70
2017-09-30T08:50:16.350Z,16.90
2017-09-30T08:51:16.319Z,17.80
2017-09-30T08:52:16.289Z,14.10
2017-09-30T08:53:16.258Z,18.50
2017-09-30T08:54:16.229Z,14.90
2017-09-30T08:55:16.198Z,20.70
2017-09-30T08:56:16.167Z,15.20
2017-09-30T08:57:16.137Z,13.80
2017-09-30T08:58:16.108Z,18.20
2017-09-30T08:59:16.076Z,14.30
2017-09-30T09:00:16.047Z,20.90
2017-09-30T09:01:16.016Z,13.30
2017-09-30T09:02:15.986Z,17.40
2017-09-30T09:03:15.960Z,13.30
2017-09-30T09:04:15.969Z,14.70
2017-09-30T09:05:15.896Z,17.20
2017-09-30T09:06:15.868Z,17.10
2017-09-30T09:07:15.835Z,12.30
2017-09-30T09:08:15.805Z,11.60
2017-09-30T09:09:15.776Z,14.80
2017-09-30T09:10:15.743Z,12.50
2017-09-30T09:11:15.713Z,16.60
2017-09-30T09:12:15.685Z,15.70
2017-09-30T09:13:15.654Z,17.30
2017-09-30T09:14:15.622Z,14.40
2017-09-30T09:15:15.594Z,16.80
2017-09-30T09:16:15.563Z,20.30
2017-09-30T09:17:15.531Z,21.00
2017-09-30T09:18:15.500Z,22.90
2017-09-30T09:19:15.470Z,25.90
2017-09-30T09:20:15.440Z,29.90
2017-09-30T09:21:15.407Z,38.50
2017-09-30T09:22:15.377Z,41.60
2017-09-30T09:23:15.346Z,40.80
2017-09-30T09:24:15.316Z,49.50
2017-09-30T09:25:15.285Z,47.00
2017-09-30T09:26:15.253Z,37.30
2017-09-30T09:27:15.222Z,34.10
2017-09-30T09:28:15.191Z,30.20
2017-09-30T09:29:15.157Z,31.80
2017-09-30T09:30:15.127Z,31.80
2017-09-30T09:31:15.096Z,23.70
2017-09-30T09:32:15.063Z,17.80
2017-09-30T09:33:15.030Z,21.60
2017-09-30T09:34:15.002Z,21.60
2017-09-30T09:35:14.972Z,19.30
2017-09-30T09:36:14.937Z,15.50
2017-09-30T09:37:14.908Z,14.90
2017-09-30T09:38:14.872Z,11.60
2017-09-30T09:39:14.840Z,8.30
2017-09-30T09:40:14.808Z,12.30
2017-09-30T09:41:14.775Z,14.90
2017-09-30T09:42:14.745Z,11.10
2017-09-30T09:43:14.713Z,12.20
2017-09-30T09:44:14.679Z,12.10
2017-09-30T09:45:14.651Z,15.50
2017-09-30T09:46:14.618Z,15.80
2017-09-30T09:47:14.586Z,17.00
2017-09-30T09:48:14.552Z,16.60
2017-09-30T09:49:14.522Z,17.80
2017-09-30T09:50:14.490Z,19.10
2017-09-30T09:51:14.458Z,20.40
2017-09-30T09:52:14.427Z,21.20
2017-09-30T09:53:14.393Z,17.00
2017-09-30T09:54:14.364Z,19.50
2017-09-30T09:55:14.330Z,26.90
2017-09-30T09:56:14.322Z,23.10
2017-09-30T09:57:14.262Z,26.50
2017-09-30T09:58:14.235Z,23.40
2017-09-30T09:59:14.201Z,24.60
2017-09-30T10:00:14.171Z,30.30
2017-09-30T10:01:14.136Z,27.50
2017-09-30T10:02:14.106Z,28.90
2017-09-30T10:03:14.074Z,28.10
2017-09-30T10:04:14.042Z,29.30
2017-09-30T10:05:14.011Z,35.60
2017-09-30T10:06:13.980Z,36.60
2017-09-30T10:07:13.947Z,34.40
2017-09-30T10:08:13.915Z,40.90
2017-09-30T10:09:13.883Z,35.60
2017-09-30T10:10:13.851Z,37.20
2017-09-30T10:11:13.817Z,35.80
2017-09-30T10:12:13.791Z,33.90
2017-09-30T10:13:13.758Z,43.90
2017-09-30T10:14:13.721Z,39.20
2017-09-30T10:15:13.689Z,41.70
2017-09-30T10:16:13.656Z,39.20
2017-09-30T10:17:13.624Z,37.50
2017-09-30T10:18:13.594Z,34.70
2017-09-30T10:19:13.559Z,24.40
2017-09-30T10:20:13.530Z,31.70
2017-09-30T10:21:13.496Z,36.10
2017-09-30T10:22:13.466Z,32.70
2017-09-30T10:23:13.431Z,29.90
2017-09-30T10:24:13.401Z,29.00
2017-09-30T10:25:13.368Z,28.50
2017-09-30T10:26:13.337Z,32.70
2017-09-30T10:27:13.304Z,25.80
2017-09-30T10:28:13.274Z,23.00
2017-09-30T10:29:13.239Z,30.00
2017-09-30T10:30:13.209Z,26.20
2017-09-30T10:31:13.176Z,31.20
2017-09-30T10:32:13.143Z,23.40
2017-09-30T10:33:13.112Z,23.30
2017-09-30T10:34:13.083Z,23.50
2017-09-30T10:35:13.047Z,28.60
2017-09-30T10:36:13.023Z,30.20
2017-09-30T10:37:12.984Z,35.10
2017-09-30T10:38:12.952Z,34.90
2017-09-30T10:39:12.920Z,37.60
2017-09-30T10:40:12.888Z,36.50
2017-09-30T10:41:12.857Z,33.40
2017-09-30T10:42:12.823Z,36.80
2017-09-30T10:43:12.792Z,40.40
2017-09-30T10:44:12.759Z,35.70
2017-09-30T10:45:12.729Z,36.70
2017-09-30T10:46:12.699Z,36.40
2017-09-30T10:47:12.664Z,39.80
2017-09-30T10:48:12.633Z,42.90
2017-09-30T10:49:12.602Z,35.50
2017-09-30T10:50:12.571Z,42.40
2017-09-30T10:51:12.538Z,41.10
2017-09-30T10:52:12.505Z,46.60
2017-09-30T10:53:12.473Z,52.30
2017-09-30T10:54:12.447Z,55.40
2017-09-30T10:55:12.410Z,56.50
2017-09-30T10:56:12.380Z,53.70
2017-09-30T10:57:12.348Z,73.10
2017-09-30T10:58:12.318Z,64.50
2017-09-30T10:59:12.292Z,62.10
2017-09-30T11:00:12.253Z,58.20
2017-09-30T11:01:12.222Z,60.70
2017-09-30T11:02:12.189Z,50.00
2017-09-30T11:03:12.155Z,45.90
2017-09-30T11:04:12.133Z,55.10
2017-09-30T11:05:12.102Z,53.50
2017-09-30T11:06:12.063Z,47.10
2017-09-30T11:07:12.030Z,58.30
2017-09-30T11:08:12.007Z,43.20
2017-09-30T11:09:11.969Z,44.40
2017-09-30T11:10:11.939Z,31.60
2017-09-30T11:11:11.905Z,42.50
2017-09-30T11:12:11.873Z,40.00
2017-09-30T11:13:11.842Z,38.50
2017-09-30T11:14:11.810Z,43.50
2017-09-30T11:15:11.781Z,42.60
2017-09-30T11:16:11.747Z,33.10
2017-09-30T11:17:11.712Z,43.30
2017-09-30T11:18:11.682Z,40.70
2017-09-30T11:19:11.652Z,38.90
2017-09-30T11:20:11.618Z,38.00
2017-09-30T11:21:11.587Z,43.80
2017-09-30T11:22:11.554Z,43.40
2017-09-30T11:23:11.527Z,48.40
2017-09-30T11:24:11.488Z,49.00
2017-09-30T11:25:11.458Z,51.90
2017-09-30T11:26:11.425Z,48.60
2017-09-30T11:27:11.394Z,52.20
2017-09-30T11:28:11.370Z,40.50
2017-09-30T11:29:11.330Z,53.50
2017-09-30T11:30:11.299Z,69.60
2017-09-30T11:31:11.265Z,52.80
2017-09-30T11:32:11.234Z,56.30
2017-09-30T11:33:11.204Z,55.90
2017-09-30T11:34:11.170Z,49.00
2017-09-30T11:35:11.137Z,52.00
2017-09-30T11:36:11.106Z,61.10
2017-09-30T11:37:11.074Z,65.20
2017-09-30T11:38:11.042Z,69.00
2017-09-30T11:39:11.013Z,56.80
2017-09-30T11:40:10.978Z,66.20
2017-09-30T11:41:10.947Z,65.00
2017-09-30T11:42:10.914Z,62.90
2017-09-30T11:43:10.883Z,52.70
2017-09-30T11:44:10.850Z,63.50
2017-09-30T11:45:10.821Z,53.40
2017-09-30T11:46:10.786Z,57.70
2017-09-30T11:47:10.755Z,46.20
2017-09-30T11:48:10.722Z,47.10
2017-09-30T11:49:10.691Z,51.00
2017-09-30T11:50:10.657Z,51.30
2017-09-30T11:51:10.629Z,43.50
2017-09-30T11:52:10.595Z,51.30
2017-09-30T11:53:10.564Z,43.20
2017-09-30T11:54:10.536Z,46.10
2017-09-30T11:55:10.501Z,48.20
2017-09-30T11:56:10.468Z,45.30
2017-09-30T11:57:10.436Z,48.80
2017-09-30T11:58:10.406Z,47.10
2017-09-30T11:59:10.374Z,54.10
2017-09-30T12:00:10.350Z,49.90
2017-09-30T12:01:10.309Z,54.00
2017-09-30T12:02:10.278Z,52.80
2017-09-30T12:03:10.246Z,55.30
2017-09-30T12:04:10.214Z,53.30
2017-09-30T12:05:10.182Z,47.10
2017-09-30T12:06:10.152Z,49.50
2017-09-30T12:07:10.118Z,51.70
2017-09-30T12:08:10.088Z,52.70
2017-09-30T12:09:10.058Z,53.80
2017-09-30T12:10:10.025Z,57.60
2017-09-30T12:11:09.993Z,52.00
2017-09-30T12:12:09.959Z,62.00
2017-09-30T12:13:09.930Z,49.00
2017-09-30T12:14:09.898Z,55.70
2017-09-30T12:15:09.864Z,41.30
2017-09-30T12:16:09.834Z,47.10
2017-09-30T12:17:09.803Z,50.40
2017-09-30T12:18:09.770Z,51.60
2017-09-30T12:19:09.739Z,61.70
2017-09-30T12:20:09.707Z,51.60
2017-09-30T12:21:09.674Z,56.70
2017-09-30T12:22:09.645Z,46.50
2017-09-30T12:23:09.613Z,61.90
2017-09-30T12:24:09.579Z,63.40
2017-09-30T12:25:09.549Z,70.90
2017-09-30T12:26:09.535Z,66.00
2017-09-30T12:27:09.483Z,53.10
2017-09-30T12:28:09.452Z,51.10
2017-09-30T12:29:09.420Z,48.60
2017-09-30T12:30:09.390Z,51.80
2017-09-30T12:31:09.355Z,52.40
2017-09-30T12:32:09.325Z,64.10
2017-09-30T12:33:09.299Z,55.40
2017-09-30T12:34:09.260Z,49.00
2017-09-30T12:35:09.240Z,46.50
2017-09-30T12:36:09.197Z,53.30
2017-09-30T12:37:09.165Z,44.00
2017-09-30T12:38:09.135Z,49.10
2017-09-30T12:39:09.100Z,56.40
2017-09-30T12:40:09.071Z,53.40
2017-09-30T12:41:09.038Z,54.40
2017-09-30T12:42:09.006Z,57.20
2017-09-30T12:43:08.973Z,65.40
2017-09-30T12:44:08.941Z,53.30
2017-09-30T12:45:08.909Z,50.60
2017-09-30T12:46:08.879Z,42.70
2017-09-30T12:47:08.846Z,46.60
2017-09-30T12:48:08.814Z,45.20
2017-09-30T12:49:08.784Z,54.80
2017-09-30T12:50:08.752Z,59.30
2017-09-30T12:51:08.718Z,58.90
2017-09-30T12:52:08.687Z,48.20